Nearby METAR Reports

YMHB - Hobart/Tasmania, Australia
Distance from Franklin: NE 55km
Updated: 14/12/2018 18:00 AEDT
Mostly cloudy
Mostly cloudy
 Wind from E
Wind: E 17 km/h
Temperature: 19°C
Dew Point: 12°C
Humidity: 64%
Barometer: 1016 hPa
Clouds: Mostly cloudy
Visibility: 10 km
Cloud details: Few Clouds 701 m
Mostly cloudy 1128 m
2018/12/14 07:00 YMHB 140700Z 09009KT 9999 FEW023 BKN037 19/12 Q1016
YMLT - Launceston Airpo, Australia
Distance from Franklin: N 179km
Updated: 14/12/2018 18:00 AEDT
Overcast
Overcast
 Wind from SSE
Wind: SSE 33 km/h
Temperature: 18°C
Dew Point: 12°C
Humidity: 68%
Barometer: 1013 hPa
Clouds: Overcast
Visibility: 10 km
Cloud details: Partly cloudy 1036 m
Partly cloudy 1433 m
Overcast 3200 m
2018/12/14 07:00 YMLT 140700Z AUTO 15018KT 9999 // SCT034 SCT047 OVC105 18/12 Q1013
 
YMAV - Avalon Airport, Australia
Distance from Franklin: NNW 601km
Updated: 14/12/2018 18:00 AEDT
Overcast
Overcast
 Wind from SSW
Wind: SSW 20 km/h
Temperature: 20°C
Dew Point: 19°C
Humidity: 94%
Barometer: 1003 hPa
Clouds: Overcast
Cloud details: Mostly cloudy 335 m
Overcast 488 m
2018/12/14 07:00 YMAV 140700Z AUTO 20011KT //// // BKN011 OVC016 20/19 Q1003
YMML - Melbourne Intl A, Australia
Distance from Franklin: NNW 631km
Updated: 14/12/2018 18:00 AEDT
Light rain, Showers, Mostly cloudy
Light rain, Showers, Mostly cloudy
 Wind from W
Wind: W 4 km/h
Temperature: 19°C
Dew Point: 17°C
Humidity: 88%
Barometer: 1003 hPa
Summary: Light rain, Showers
Clouds: Mostly cloudy
Visibility: 10 km
Cloud details: Few Clouds 244 m
Mostly cloudy 457 m
2018/12/14 07:00 YMML 140700Z 27002KT 9999 -SHRA FEW008 BKN015 19/17 Q1003